createdAt,value
2023-04-17T00:00:09.651Z,2.80
2023-04-17T00:02:40.049Z,2.60
2023-04-17T00:05:09.153Z,2.67
2023-04-17T00:07:38.779Z,2.60
2023-04-17T00:10:08.899Z,2.50
2023-04-17T00:12:38.606Z,2.43
2023-04-17T00:15:07.299Z,2.97
2023-04-17T00:17:35.032Z,3.23
2023-04-17T00:20:06.128Z,3.27
2023-04-17T00:22:34.706Z,2.67
2023-04-17T00:25:02.538Z,2.80
2023-04-17T00:27:30.268Z,2.90
2023-04-17T00:29:59.389Z,3.07
2023-04-17T00:32:27.266Z,3.10
2023-04-17T00:34:55.863Z,3.20
2023-04-17T00:37:23.783Z,3.40
2023-04-17T00:39:51.681Z,2.80
2023-04-17T00:42:19.706Z,3.20
2023-04-17T00:44:47.464Z,3.10
2023-04-17T00:47:16.765Z,3.00
2023-04-17T00:49:44.691Z,3.00
2023-04-17T00:52:12.779Z,3.30
2023-04-17T00:54:40.706Z,3.20
2023-04-17T00:57:08.578Z,2.87
2023-04-17T00:59:37.617Z,3.17
2023-04-17T01:02:05.726Z,2.97
2023-04-17T01:04:34.962Z,3.10
2023-04-17T01:07:03.510Z,3.07
2023-04-17T01:09:31.295Z,3.10
2023-04-17T01:12:17.409Z,3.30
2023-04-17T01:14:45.481Z,2.80
2023-04-17T01:17:15.373Z,2.90
2023-04-17T01:19:44.668Z,3.47
2023-04-17T01:22:12.561Z,3.30
2023-04-17T01:24:41.648Z,3.30
2023-04-17T01:27:10.557Z,3.50
2023-04-17T01:29:38.298Z,3.03
2023-04-17T01:32:06.558Z,3.00
2023-04-17T01:34:36.762Z,3.40
2023-04-17T01:37:05.413Z,3.83
2023-04-17T01:39:33.218Z,3.50
2023-04-17T01:42:02.462Z,3.73
2023-04-17T01:44:30.405Z,3.80
2023-04-17T01:46:58.265Z,3.67
2023-04-17T01:49:26.175Z,3.60
2023-04-17T01:51:53.988Z,3.97
2023-04-17T01:54:22.447Z,3.90
2023-04-17T01:56:50.247Z,3.90
2023-04-17T01:59:19.485Z,3.60
2023-04-17T02:01:47.296Z,3.80
2023-04-17T02:04:15.469Z,3.50
2023-04-17T02:06:43.331Z,3.73
2023-04-17T02:09:11.777Z,3.60
2023-04-17T02:11:39.904Z,3.27
2023-04-17T02:14:07.739Z,3.30
2023-04-17T02:16:37.544Z,3.30
2023-04-17T02:19:05.496Z,3.27
2023-04-17T02:21:33.392Z,3.20
2023-04-17T02:24:01.229Z,3.37
2023-04-17T02:26:29.018Z,3.30
2023-04-17T02:28:56.968Z,3.00
2023-04-17T02:31:25.051Z,3.13
2023-04-17T02:33:55.323Z,3.10
2023-04-17T02:36:23.030Z,3.07
2023-04-17T02:38:50.892Z,3.33
2023-04-17T02:41:18.819Z,3.30
2023-04-17T02:43:47.010Z,3.23
2023-04-17T02:46:14.918Z,3.20
2023-04-17T02:48:42.698Z,3.10
2023-04-17T02:51:11.980Z,2.90
2023-04-17T02:53:39.774Z,3.03
2023-04-17T02:56:07.834Z,3.27
2023-04-17T02:58:36.267Z,3.27
2023-04-17T03:01:04.614Z,3.30
2023-04-17T03:03:35.103Z,3.07
2023-04-17T03:06:03.930Z,3.50
2023-04-17T03:08:35.691Z,2.90
2023-04-17T03:11:04.720Z,3.63
2023-04-17T03:13:36.513Z,3.70
2023-04-17T03:16:05.115Z,3.10
2023-04-17T03:18:33.060Z,3.23
2023-04-17T03:21:00.914Z,3.50
2023-04-17T03:23:29.000Z,3.50
2023-04-17T03:25:58.086Z,3.77
2023-04-17T03:28:26.010Z,3.30
2023-04-17T03:30:55.001Z,3.70
2023-04-17T03:33:22.745Z,3.20
2023-04-17T03:35:50.831Z,3.73
2023-04-17T03:38:18.892Z,3.43
2023-04-17T03:40:46.711Z,3.50
2023-04-17T03:43:15.832Z,3.47
2023-04-17T03:45:44.015Z,3.60
2023-04-17T03:48:11.883Z,3.63
2023-04-17T03:50:40.186Z,3.83
2023-04-17T03:53:07.952Z,3.83
2023-04-17T03:55:36.172Z,4.47
2023-04-17T03:58:03.988Z,4.53
2023-04-17T04:00:33.160Z,4.30
2023-04-17T04:03:01.039Z,4.30
2023-04-17T04:05:29.128Z,4.23
2023-04-17T04:07:56.984Z,4.30
2023-04-17T04:10:24.899Z,4.13
2023-04-17T04:12:52.672Z,4.30
2023-04-17T04:15:20.673Z,3.80
2023-04-17T04:17:52.278Z,4.67
2023-04-17T04:20:22.255Z,4.40
2023-04-17T04:22:51.107Z,4.27
2023-04-17T04:25:19.998Z,4.03
2023-04-17T04:27:50.282Z,4.20
2023-04-17T04:30:19.189Z,4.50
2023-04-17T04:32:47.018Z,4.33
2023-04-17T04:35:16.838Z,4.30
2023-04-17T04:37:46.443Z,4.30
2023-04-17T04:40:15.731Z,4.77
2023-04-17T04:42:49.480Z,4.37
2023-04-17T04:45:19.085Z,3.93
2023-04-17T04:47:46.913Z,4.83
2023-04-17T04:50:16.405Z,4.13
2023-04-17T04:52:44.488Z,4.27
2023-04-17T04:55:12.588Z,4.40
2023-04-17T04:57:40.464Z,4.30
2023-04-17T05:00:09.610Z,4.07
2023-04-17T05:02:37.726Z,4.20
2023-04-17T05:05:07.946Z,3.70
2023-04-17T05:07:37.226Z,3.80
2023-04-17T05:10:05.882Z,3.97
2023-04-17T05:12:35.142Z,3.97
2023-04-17T05:15:03.446Z,3.90
2023-04-17T05:17:31.296Z,3.77
2023-04-17T05:19:59.110Z,3.90
2023-04-17T05:22:27.626Z,3.90
2023-04-17T05:24:57.116Z,4.13
2023-04-17T05:27:26.778Z,4.37
2023-04-17T05:29:55.061Z,4.10
2023-04-17T05:32:22.941Z,3.57
2023-04-17T05:34:51.343Z,4.27
2023-04-17T05:37:19.145Z,4.13
2023-04-17T05:39:47.003Z,4.40
2023-04-17T05:42:16.150Z,4.33
2023-04-17T05:44:43.925Z,4.40
2023-04-17T05:47:11.693Z,4.57
2023-04-17T05:49:39.864Z,4.47
2023-04-17T05:52:07.583Z,4.43
2023-04-17T05:54:35.443Z,3.97
2023-04-17T05:57:03.526Z,4.10
2023-04-17T05:59:32.992Z,3.73
2023-04-17T06:02:00.838Z,4.30
2023-04-17T06:04:29.479Z,3.83
2023-04-17T06:06:57.376Z,3.70
2023-04-17T06:09:25.898Z,4.03
2023-04-17T06:11:53.738Z,4.30
2023-04-17T06:14:21.601Z,3.53
2023-04-17T06:16:50.868Z,3.97
2023-04-17T06:19:18.765Z,3.67
2023-04-17T06:21:46.602Z,3.77
2023-04-17T06:24:14.307Z,3.60
2023-04-17T06:26:42.079Z,4.13
2023-04-17T06:29:10.170Z,4.17
2023-04-17T06:31:38.052Z,4.40
2023-04-17T06:34:07.204Z,4.50
2023-04-17T06:36:34.996Z,4.50
2023-04-17T06:39:02.820Z,4.17
2023-04-17T06:41:32.006Z,4.07
2023-04-17T06:43:59.870Z,4.07
2023-04-17T06:46:28.063Z,3.83
2023-04-17T06:48:58.086Z,3.87
2023-04-17T06:51:28.733Z,4.00
2023-04-17T06:53:56.573Z,3.93
2023-04-17T06:56:24.615Z,3.17
2023-04-17T06:58:52.574Z,3.80
2023-04-17T07:01:20.883Z,3.50
2023-04-17T07:03:48.884Z,2.93
2023-04-17T07:06:17.134Z,3.33
2023-04-17T07:08:46.290Z,3.00
2023-04-17T07:11:14.398Z,2.57
2023-04-17T07:13:42.307Z,3.10
2023-04-17T07:16:10.285Z,3.20
2023-04-17T07:18:38.291Z,2.50
2023-04-17T07:21:06.210Z,2.70
2023-04-17T07:23:33.967Z,2.73
2023-04-17T07:26:04.427Z,2.70
2023-04-17T07:28:32.296Z,2.43
2023-04-17T07:31:00.180Z,2.10
2023-04-17T07:33:28.007Z,2.20
2023-04-17T07:35:55.945Z,2.17
2023-04-17T07:38:23.680Z,2.40
2023-04-17T07:40:51.492Z,2.40
2023-04-17T07:43:20.678Z,2.00
2023-04-17T07:45:48.970Z,1.83
2023-04-17T07:48:18.689Z,2.00
2023-04-17T07:50:46.434Z,1.70
2023-04-17T07:53:14.298Z,1.73
2023-04-17T07:55:42.028Z,1.80
2023-04-17T07:58:11.414Z,2.00
2023-04-17T08:00:41.257Z,1.73
2023-04-17T08:03:09.322Z,1.47
2023-04-17T08:05:37.452Z,1.30
2023-04-17T08:08:05.807Z,1.40
2023-04-17T08:10:33.622Z,1.73
2023-04-17T08:13:01.769Z,1.80
2023-04-17T08:15:29.783Z,1.87
2023-04-17T08:17:58.969Z,1.77
2023-04-17T08:20:27.327Z,1.80
2023-04-17T08:22:55.061Z,1.50
2023-04-17T08:25:22.809Z,1.90
2023-04-17T08:27:50.559Z,1.73
2023-04-17T08:30:19.278Z,1.57
2023-04-17T08:32:49.396Z,1.80
2023-04-17T08:35:18.681Z,1.90
2023-04-17T08:37:47.528Z,1.50
2023-04-17T08:40:17.459Z,1.30
2023-04-17T08:42:47.855Z,1.60
2023-04-17T08:45:16.149Z,1.43
2023-04-17T08:47:44.904Z,1.40
2023-04-17T08:50:14.317Z,1.50
2023-04-17T08:52:44.742Z,1.40
2023-04-17T08:55:14.167Z,1.23
2023-04-17T08:58:03.596Z,1.40
2023-04-17T09:00:32.667Z,1.50
2023-04-17T09:03:01.910Z,0.97
2023-04-17T09:05:33.393Z,0.90
2023-04-17T09:08:11.370Z,0.93
2023-04-17T09:10:40.052Z,0.80
2023-04-17T09:13:08.546Z,1.00
2023-04-17T09:15:37.693Z,0.80
2023-04-17T09:18:05.863Z,0.70
2023-04-17T09:20:33.860Z,0.70
2023-04-17T09:23:03.169Z,0.90
2023-04-17T09:25:32.563Z,0.90
2023-04-17T09:28:12.699Z,0.93
2023-04-17T09:30:41.443Z,0.77
2023-04-17T09:33:11.856Z,1.00
2023-04-17T09:35:40.510Z,0.90
2023-04-17T09:38:08.527Z,1.00
2023-04-17T09:40:42.149Z,0.80
2023-04-17T09:43:11.280Z,1.00
2023-04-17T09:45:42.777Z,1.10
2023-04-17T09:48:13.644Z,1.00
2023-04-17T09:50:41.686Z,0.97
2023-04-17T09:53:09.773Z,1.03
2023-04-17T09:55:38.829Z,0.80
2023-04-17T09:58:08.533Z,0.80
2023-04-17T10:00:38.069Z,0.80
2023-04-17T10:03:06.545Z,0.90
2023-04-17T10:05:34.670Z,1.00
2023-04-17T10:08:02.639Z,1.00
2023-04-17T10:10:33.440Z,0.90
2023-04-17T10:13:04.599Z,1.00
2023-04-17T10:15:34.223Z,0.90
2023-04-17T10:18:20.201Z,1.00
2023-04-17T10:20:48.533Z,0.90
2023-04-17T10:23:31.360Z,0.93
2023-04-17T10:26:41.784Z,1.00
2023-04-17T10:29:09.744Z,0.90
2023-04-17T10:32:29.248Z,1.03
2023-04-17T10:35:00.822Z,1.00
2023-04-17T10:38:05.327Z,1.00
2023-04-17T10:40:34.055Z,1.00
2023-04-17T10:43:04.262Z,1.00
2023-04-17T10:45:57.874Z,1.20
2023-04-17T10:48:30.188Z,1.10
2023-04-17T10:50:59.632Z,0.97
2023-04-17T10:53:44.469Z,1.10
2023-04-17T10:56:13.591Z,1.00
2023-04-17T10:58:57.876Z,1.10
2023-04-17T11:01:35.477Z,1.00
2023-04-17T11:04:04.292Z,1.10
2023-04-17T11:06:38.857Z,1.10
2023-04-17T11:09:09.309Z,1.20
2023-04-17T11:11:44.264Z,1.27
2023-04-17T11:14:15.206Z,1.97
2023-04-17T11:16:44.223Z,9.37
2023-04-17T11:19:13.823Z,8.07
2023-04-17T11:21:44.946Z,6.67
2023-04-17T11:24:12.890Z,5.13
2023-04-17T11:26:44.248Z,3.50
2023-04-17T11:29:15.653Z,2.50
2023-04-17T11:31:43.588Z,1.63
2023-04-17T11:34:11.758Z,1.30
2023-04-17T11:36:39.543Z,1.27
2023-04-17T11:39:09.358Z,1.20
2023-04-17T11:41:37.725Z,1.27
2023-04-17T11:44:05.685Z,1.10
2023-04-17T11:46:33.522Z,1.20
2023-04-17T11:49:01.439Z,1.00
2023-04-17T11:51:29.669Z,0.90
2023-04-17T11:53:57.635Z,1.17
2023-04-17T11:56:29.538Z,0.90
2023-04-17T11:58:58.353Z,0.90
2023-04-17T12:01:31.373Z,1.00
2023-04-17T12:04:00.431Z,0.90
2023-04-17T12:06:37.597Z,0.97
2023-04-17T12:09:07.081Z,1.10
2023-04-17T12:11:36.794Z,1.00
2023-04-17T12:14:05.251Z,1.00
2023-04-17T12:16:33.297Z,0.90
2023-04-17T12:19:01.128Z,0.83
2023-04-17T12:21:28.859Z,1.20
2023-04-17T12:23:56.751Z,1.00
2023-04-17T12:26:25.263Z,1.03
2023-04-17T12:28:54.340Z,1.10
2023-04-17T12:31:22.157Z,1.10
2023-04-17T12:33:50.057Z,1.17
2023-04-17T12:36:18.204Z,1.10
2023-04-17T12:38:46.507Z,1.00
2023-04-17T12:41:14.494Z,1.07
2023-04-17T12:43:42.398Z,0.97
2023-04-17T12:46:11.948Z,0.90
2023-04-17T12:48:39.714Z,1.00
2023-04-17T12:51:10.242Z,0.93
2023-04-17T12:53:38.049Z,0.80
2023-04-17T12:56:06.487Z,0.80
2023-04-17T12:58:34.287Z,0.70
2023-04-17T13:01:02.062Z,0.83
2023-04-17T13:03:31.328Z,0.90
2023-04-17T13:05:59.332Z,0.87
2023-04-17T13:08:27.313Z,0.80
2023-04-17T13:10:56.268Z,0.80
2023-04-17T13:13:24.190Z,0.90
2023-04-17T13:15:53.769Z,0.80
2023-04-17T13:18:21.592Z,1.00
2023-04-17T13:20:50.997Z,1.10
2023-04-17T13:23:18.791Z,0.87
2023-04-17T13:25:46.896Z,0.83
2023-04-17T13:28:14.777Z,0.90
2023-04-17T13:30:42.614Z,0.90
2023-04-17T13:33:10.442Z,0.90
2023-04-17T13:35:39.640Z,0.90
2023-04-17T13:38:08.794Z,0.97
2023-04-17T13:40:38.466Z,0.70
2023-04-17T13:43:07.030Z,0.80
2023-04-17T13:45:34.809Z,1.00
2023-04-17T13:48:02.858Z,0.93
2023-04-17T13:50:31.935Z,1.07
2023-04-17T13:52:59.708Z,0.87
2023-04-17T13:55:28.968Z,1.13
2023-04-17T13:57:56.752Z,0.97
2023-04-17T14:00:24.812Z,0.80
2023-04-17T14:02:52.873Z,0.80
2023-04-17T14:05:20.827Z,0.70
2023-04-17T14:07:49.123Z,0.80
2023-04-17T14:10:16.940Z,1.10
2023-04-17T14:12:46.201Z,1.00
2023-04-17T14:15:14.186Z,0.83
2023-04-17T14:17:43.302Z,0.90
2023-04-17T14:20:12.217Z,0.90
2023-04-17T14:22:40.196Z,1.00
2023-04-17T14:25:08.553Z,1.13
2023-04-17T14:27:37.086Z,1.10
2023-04-17T14:30:09.636Z,1.00
2023-04-17T14:32:38.413Z,1.10
2023-04-17T14:35:07.103Z,1.20
2023-04-17T14:37:34.911Z,1.10
2023-04-17T14:40:02.788Z,1.10
2023-04-17T14:42:32.674Z,1.13
2023-04-17T14:45:03.805Z,1.20
2023-04-17T14:47:33.973Z,1.10
2023-04-17T14:50:01.802Z,1.30
2023-04-17T14:52:29.863Z,1.07
2023-04-17T14:54:57.649Z,1.03
2023-04-17T14:57:25.501Z,1.37
2023-04-17T14:59:53.417Z,1.20
2023-04-17T15:02:22.964Z,1.50
2023-04-17T15:04:54.520Z,1.43
2023-04-17T15:07:22.350Z,1.40
2023-04-17T15:09:50.301Z,1.53
2023-04-17T15:12:18.039Z,1.60
2023-04-17T15:14:45.795Z,1.40
2023-04-17T15:17:13.724Z,1.40
2023-04-17T15:19:41.531Z,1.50
2023-04-17T15:22:10.935Z,1.70
2023-04-17T15:24:38.768Z,1.33
2023-04-17T15:27:06.734Z,1.33
2023-04-17T15:29:34.560Z,1.40
2023-04-17T15:32:02.486Z,1.40
2023-04-17T15:34:30.290Z,1.10
2023-04-17T15:36:58.586Z,1.30
2023-04-17T15:39:27.799Z,1.27
2023-04-17T15:41:56.481Z,1.50
2023-04-17T15:44:24.327Z,1.50
2023-04-17T15:46:52.093Z,1.30
2023-04-17T15:49:19.900Z,1.27
2023-04-17T15:51:47.803Z,1.10
2023-04-17T15:54:15.582Z,1.40
2023-04-17T15:56:44.704Z,1.23
2023-04-17T15:59:12.777Z,1.20
2023-04-17T16:01:40.788Z,1.40
2023-04-17T16:04:08.694Z,1.60
2023-04-17T16:06:36.669Z,1.13
2023-04-17T16:09:04.642Z,1.20
2023-04-17T16:11:33.433Z,1.60
2023-04-17T16:14:02.572Z,1.17
2023-04-17T16:16:30.503Z,1.37
2023-04-17T16:18:59.073Z,1.30
2023-04-17T16:21:27.341Z,1.20
2023-04-17T16:23:55.423Z,1.20
2023-04-17T16:26:23.396Z,1.00
2023-04-17T16:28:51.285Z,1.10
2023-04-17T16:31:21.319Z,1.30
2023-04-17T16:33:49.630Z,1.27
2023-04-17T16:36:17.432Z,1.40
2023-04-17T16:38:46.317Z,1.37
2023-04-17T16:41:14.186Z,1.27
2023-04-17T16:43:42.530Z,1.30
2023-04-17T16:46:20.589Z,1.80
2023-04-17T16:48:52.107Z,1.70
2023-04-17T16:51:20.669Z,1.87
2023-04-17T16:53:48.798Z,1.70
2023-04-17T16:56:16.645Z,1.90
2023-04-17T16:58:44.433Z,1.80
2023-04-17T17:01:12.261Z,1.70
2023-04-17T17:03:42.361Z,1.70
2023-04-17T17:06:12.074Z,1.90
2023-04-17T17:08:41.832Z,1.60
2023-04-17T17:11:10.251Z,1.87
2023-04-17T17:13:38.080Z,1.97
2023-04-17T17:16:05.860Z,1.93
2023-04-17T17:18:33.698Z,1.97
2023-04-17T17:21:02.059Z,2.20
2023-04-17T17:23:32.231Z,2.13
2023-04-17T17:26:00.133Z,2.50
2023-04-17T17:28:27.912Z,2.60
2023-04-17T17:31:00.782Z,3.07
2023-04-17T17:33:30.053Z,3.80
2023-04-17T17:35:57.821Z,4.90
2023-04-17T17:38:28.489Z,7.47
2023-04-17T17:40:57.569Z,8.60
2023-04-17T17:43:25.425Z,7.83
2023-04-17T17:45:53.567Z,6.93
2023-04-17T17:48:21.377Z,5.77
2023-04-17T17:50:49.661Z,4.90
2023-04-17T17:53:18.559Z,5.10
2023-04-17T17:55:52.438Z,4.70
2023-04-17T17:58:22.105Z,4.60
2023-04-17T18:00:50.299Z,4.50
2023-04-17T18:03:18.734Z,4.23
2023-04-17T18:05:47.501Z,3.80
2023-04-17T18:08:15.405Z,3.87
2023-04-17T18:10:43.221Z,4.00
2023-04-17T18:13:10.953Z,3.77
2023-04-17T18:15:40.121Z,3.73
2023-04-17T18:18:07.945Z,3.50
2023-04-17T18:20:38.764Z,3.70
2023-04-17T18:23:06.559Z,3.80
2023-04-17T18:25:35.509Z,3.87
2023-04-17T18:28:03.746Z,3.90
2023-04-17T18:30:31.748Z,4.10
2023-04-17T18:33:00.939Z,4.60
2023-04-17T18:35:28.809Z,4.10
2023-04-17T18:37:57.388Z,4.57
2023-04-17T18:40:25.095Z,5.17
2023-04-17T18:42:52.878Z,4.77
2023-04-17T18:45:20.764Z,4.97
2023-04-17T18:47:48.497Z,4.53
2023-04-17T18:50:17.930Z,4.43
2023-04-17T18:52:49.631Z,4.50
2023-04-17T18:55:19.011Z,4.33
2023-04-17T18:57:47.774Z,4.30
2023-04-17T19:00:15.984Z,4.10
2023-04-17T19:02:43.950Z,4.80
2023-04-17T19:05:11.748Z,4.57
2023-04-17T19:07:41.448Z,4.33
2023-04-17T19:10:10.212Z,4.57
2023-04-17T19:12:37.980Z,4.90
2023-04-17T19:15:07.436Z,4.80
2023-04-17T19:17:35.383Z,5.33
2023-04-17T19:20:03.273Z,5.60
2023-04-17T19:22:31.139Z,5.30
2023-04-17T19:25:00.309Z,5.60
2023-04-17T19:27:28.258Z,5.90
2023-04-17T19:29:56.024Z,5.60
2023-04-17T19:32:23.777Z,5.77
2023-04-17T19:34:51.556Z,5.13
2023-04-17T19:37:21.453Z,5.70
2023-04-17T19:39:49.519Z,5.63
2023-04-17T19:42:18.794Z,5.33
2023-04-17T19:44:47.852Z,5.17
2023-04-17T19:47:15.624Z,5.70
2023-04-17T19:49:43.498Z,5.30
2023-04-17T19:52:12.040Z,5.67
2023-04-17T19:54:39.873Z,5.47
2023-04-17T19:57:07.644Z,5.40
2023-04-17T19:59:36.851Z,6.00
2023-04-17T20:02:04.790Z,5.80
2023-04-17T20:04:32.769Z,5.67
2023-04-17T20:07:00.681Z,5.67
2023-04-17T20:09:28.488Z,5.70
2023-04-17T20:11:56.241Z,5.83
2023-04-17T20:14:24.894Z,5.17
2023-04-17T20:16:54.189Z,5.47
2023-04-17T20:19:22.030Z,5.80
2023-04-17T20:21:49.854Z,5.30
2023-04-17T20:24:17.575Z,5.47
2023-04-17T20:26:45.670Z,5.30
2023-04-17T20:29:13.720Z,5.67
2023-04-17T20:31:41.778Z,5.10
2023-04-17T20:34:10.930Z,5.87
2023-04-17T20:36:38.734Z,5.90
2023-04-17T20:39:07.219Z,6.17
2023-04-17T20:41:35.239Z,6.07
2023-04-17T20:44:04.144Z,6.00
2023-04-17T20:46:31.932Z,5.97
2023-04-17T20:48:59.722Z,5.70
2023-04-17T20:51:28.870Z,5.93
2023-04-17T20:53:56.857Z,5.90
2023-04-17T20:56:24.732Z,6.30
2023-04-17T20:58:52.539Z,6.37
2023-04-17T21:01:21.069Z,6.03
2023-04-17T21:03:48.963Z,6.43
2023-04-17T21:06:17.742Z,6.03
2023-04-17T21:08:46.863Z,6.27
2023-04-17T21:11:14.630Z,7.20
2023-04-17T21:13:42.447Z,6.67
2023-04-17T21:16:12.118Z,6.93
2023-04-17T21:18:39.958Z,6.63
2023-04-17T21:21:07.856Z,6.77
2023-04-17T21:23:35.688Z,6.43
2023-04-17T21:26:04.884Z,6.50
2023-04-17T21:28:33.081Z,6.77
2023-04-17T21:31:00.829Z,5.67
2023-04-17T21:33:28.638Z,5.93
2023-04-17T21:35:56.467Z,6.47
2023-04-17T21:38:24.171Z,6.00
2023-04-17T21:40:52.059Z,5.57
2023-04-17T21:43:21.273Z,6.30
2023-04-17T21:45:49.835Z,5.50
2023-04-17T21:48:18.170Z,5.70
2023-04-17T21:50:45.931Z,6.13
2023-04-17T21:53:13.732Z,5.87
2023-04-17T21:55:41.590Z,6.10
2023-04-17T21:58:09.366Z,6.13
2023-04-17T22:00:38.597Z,6.07
2023-04-17T22:03:06.528Z,5.27
2023-04-17T22:05:34.381Z,5.40
2023-04-17T22:08:02.384Z,5.33
2023-04-17T22:10:30.602Z,6.03
2023-04-17T22:12:58.375Z,5.53
2023-04-17T22:15:26.079Z,4.73
2023-04-17T22:17:55.217Z,4.17
2023-04-17T22:20:23.001Z,4.50
2023-04-17T22:22:50.780Z,4.03
2023-04-17T22:25:18.878Z,3.67
2023-04-17T22:27:46.674Z,4.53
2023-04-17T22:30:14.682Z,4.37
2023-04-17T22:32:42.493Z,4.80
2023-04-17T22:35:11.753Z,4.87
2023-04-17T22:37:39.414Z,5.13
2023-04-17T22:40:08.730Z,5.37
2023-04-17T22:42:36.473Z,5.37
2023-04-17T22:45:04.654Z,5.17
2023-04-17T22:47:32.565Z,5.10
2023-04-17T22:50:00.531Z,5.00
2023-04-17T22:52:29.750Z,4.77
2023-04-17T22:54:57.473Z,4.80
2023-04-17T22:57:25.300Z,4.30
2023-04-17T22:59:53.087Z,4.37
2023-04-17T23:02:20.846Z,4.07
2023-04-17T23:04:48.793Z,3.83
2023-04-17T23:07:16.700Z,3.63
2023-04-17T23:09:46.509Z,3.40
2023-04-17T23:12:14.299Z,3.10
2023-04-17T23:14:45.984Z,2.70
2023-04-17T23:17:13.987Z,2.50
2023-04-17T23:19:41.727Z,2.23
2023-04-17T23:22:10.529Z,2.13
2023-04-17T23:24:38.229Z,2.00
2023-04-17T23:27:07.379Z,2.00
2023-04-17T23:29:35.261Z,2.30
2023-04-17T23:32:04.461Z,2.03
2023-04-17T23:34:32.208Z,1.90
2023-04-17T23:37:02.071Z,1.90
2023-04-17T23:39:29.872Z,1.70
2023-04-17T23:41:57.700Z,1.87
2023-04-17T23:44:28.098Z,1.90
2023-04-17T23:46:56.002Z,1.80
2023-04-17T23:49:23.901Z,1.60
2023-04-17T23:51:51.630Z,1.63
2023-04-17T23:54:19.403Z,1.70
2023-04-17T23:56:48.780Z,1.77
2023-04-17T23:59:18.587Z,1.60
